WMT411 LIME-LRTM
Flight info
| Callsign | WMT411 |
|---|---|
| Flight time | 1h 30m |
| Altitude | 36000 |
| Route | LEGLO DCT OSKOR DCT ELTAR DCT KUBUD/N0446F370 DCT IRLIX DCT DIMLO DCT NARKA/N0280F090 Z941 ATSOS |
| Aircraft | A321/M-SDE1E2E3FGIJ1J4RWXY/LB1 |
Departure
| Time | 2026-04-20 13:42 |
|---|---|
| Airport | Il Caravaggio International Airport (LIME) |
Arrival
| Time | 2026-04-20 15:13 |
|---|---|
| Airport | Târgu Mureş Transilvania International Airport (LRTM) |
| Time | Latitude | Longitude | Altitude | Speed | Heading |
|---|---|---|---|---|---|
| 2026-04-20 13:15 | 45.66492 | 9.70883 | 787 ft | 0 kts | 195° |
| 2026-04-20 13:34 | 45.66493 | 9.70883 | 787 ft | 0 kts | 195° |
| 2026-04-20 13:35 | 45.66517 | 9.70891 | 797 ft | 4 kts | 188° |
| 2026-04-20 13:35 | 45.66544 | 9.70894 | 787 ft | 4 kts | 176° |
| 2026-04-20 13:35 | 45.66569 | 9.70887 | 787 ft | 4 kts | 147° |
| 2026-04-20 13:36 | 45.66582 | 9.70868 | 787 ft | 1 kts | 105° |
| 2026-04-20 13:36 | 45.66583 | 9.70863 | 787 ft | 0 kts | 105° |
| 2026-04-20 13:38 | 45.66574 | 9.70909 | 787 ft | 10 kts | 105° |
| 2026-04-20 13:38 | 45.66551 | 9.71030 | 787 ft | 15 kts | 105° |
| 2026-04-20 13:38 | 45.66511 | 9.71185 | 787 ft | 19 kts | 115° |
| 2026-04-20 13:38 | 45.66467 | 9.71377 | 787 ft | 22 kts | 104° |
| 2026-04-20 13:39 | 45.66439 | 9.71598 | 787 ft | 22 kts | 88° |
| 2026-04-20 13:39 | 45.66470 | 9.71804 | 787 ft | 21 kts | 87° |
| 2026-04-20 13:39 | 45.66445 | 9.72008 | 787 ft | 22 kts | 104° |
| 2026-04-20 13:39 | 45.66408 | 9.72219 | 787 ft | 22 kts | 104° |
| 2026-04-20 13:40 | 45.66376 | 9.72404 | 787 ft | 18 kts | 92° |
| 2026-04-20 13:40 | 45.66461 | 9.72415 | 787 ft | 14 kts | 302° |
| 2026-04-20 13:40 | 45.66470 | 9.72377 | 787 ft | 0 kts | 286° |
| 2026-04-20 13:41 | 45.66471 | 9.72373 | 787 ft | 3 kts | 286° |
| 2026-04-20 13:42 | 45.66534 | 9.72040 | 787 ft | 74 kts | 285° |
| 2026-04-20 13:42 | 45.67015 | 9.69422 | 942 ft | 176 kts | 284° |
| 2026-04-20 13:42 | 45.67151 | 9.67721 | 1698 ft | 172 kts | 257° |
| 2026-04-20 13:43 | 45.66626 | 9.66196 | 2293 ft | 178 kts | 227° |
| 2026-04-20 13:43 | 45.65740 | 9.64894 | 2801 ft | 185 kts | 225° |
| 2026-04-20 13:43 | 45.64847 | 9.63591 | 3416 ft | 186 kts | 226° |
| 2026-04-20 13:43 | 45.63936 | 9.62257 | 4016 ft | 188 kts | 226° |
| 2026-04-20 13:44 | 45.63023 | 9.60915 | 4700 ft | 188 kts | 227° |
| 2026-04-20 13:44 | 45.62107 | 9.59566 | 5310 ft | 190 kts | 227° |
| 2026-04-20 13:44 | 45.61172 | 9.58197 | 5952 ft | 198 kts | 226° |
| 2026-04-20 13:44 | 45.60160 | 9.56744 | 6286 ft | 212 kts | 226° |
| 2026-04-20 13:45 | 45.59097 | 9.55291 | 6792 ft | 216 kts | 219° |
| 2026-04-20 13:45 | 45.57677 | 9.54540 | 7272 ft | 224 kts | 185° |
| 2026-04-20 13:45 | 45.56150 | 9.55042 | 7781 ft | 232 kts | 153° |
| 2026-04-20 13:45 | 45.55023 | 9.56708 | 8288 ft | 240 kts | 117° |
| 2026-04-20 13:46 | 45.54747 | 9.59041 | 8803 ft | 243 kts | 81° |
| 2026-04-20 13:46 | 45.55434 | 9.61202 | 9324 ft | 241 kts | 48° |
| 2026-04-20 13:46 | 45.56520 | 9.62999 | 9865 ft | 242 kts | 46° |
| 2026-04-20 13:46 | 45.57630 | 9.64808 | 10280 ft | 242 kts | 45° |
| 2026-04-20 13:47 | 45.58743 | 9.66620 | 10762 ft | 243 kts | 45° |
| 2026-04-20 13:47 | 45.59866 | 9.68457 | 11230 ft | 245 kts | 45° |
| 2026-04-20 13:47 | 45.60992 | 9.70299 | 11707 ft | 247 kts | 44° |
| 2026-04-20 13:47 | 45.62111 | 9.72129 | 12166 ft | 249 kts | 44° |
| 2026-04-20 13:48 | 45.63251 | 9.73997 | 12635 ft | 250 kts | 44° |
| 2026-04-20 13:48 | 45.64295 | 9.76009 | 13083 ft | 257 kts | 57° |
| 2026-04-20 13:48 | 45.64927 | 9.78444 | 13478 ft | 268 kts | 74° |
| 2026-04-20 13:48 | 45.65062 | 9.81179 | 13624 ft | 285 kts | 88° |
| 2026-04-20 13:49 | 45.65045 | 9.84120 | 13713 ft | 307 kts | 88° |
| 2026-04-20 13:49 | 45.65029 | 9.87291 | 13865 ft | 330 kts | 88° |
| 2026-04-20 13:49 | 45.65018 | 9.90692 | 14000 ft | 353 kts | 89° |
| 2026-04-20 13:49 | 45.65010 | 9.94312 | 14141 ft | 374 kts | 88° |
| 2026-04-20 13:50 | 45.65001 | 9.98036 | 14565 ft | 383 kts | 88° |
| 2026-04-20 13:50 | 45.64984 | 10.01870 | 15138 ft | 388 kts | 89° |
| 2026-04-20 13:50 | 45.64964 | 10.05764 | 15714 ft | 394 kts | 89° |
| 2026-04-20 13:50 | 45.64943 | 10.09697 | 16321 ft | 399 kts | 89° |
| 2026-04-20 13:51 | 45.64923 | 10.13684 | 16923 ft | 404 kts | 89° |
| 2026-04-20 13:51 | 45.64912 | 10.17721 | 17517 ft | 408 kts | 88° |
| 2026-04-20 13:51 | 45.64906 | 10.21805 | 18072 ft | 413 kts | 89° |
| 2026-04-20 13:51 | 45.64901 | 10.25939 | 18588 ft | 418 kts | 89° |
| 2026-04-20 13:52 | 45.64894 | 10.30125 | 19107 ft | 422 kts | 89° |
| 2026-04-20 13:52 | 45.64885 | 10.34343 | 19655 ft | 425 kts | 89° |
| 2026-04-20 13:52 | 45.64873 | 10.38525 | 20168 ft | 429 kts | 89° |
| 2026-04-20 13:52 | 45.64858 | 10.42807 | 20682 ft | 432 kts | 89° |
| 2026-04-20 13:53 | 45.64840 | 10.47136 | 21204 ft | 436 kts | 89° |
| 2026-04-20 13:53 | 45.64821 | 10.51499 | 21751 ft | 440 kts | 89° |
| 2026-04-20 13:53 | 45.64798 | 10.55891 | 22298 ft | 443 kts | 89° |
| 2026-04-20 13:53 | 45.64784 | 10.60312 | 22794 ft | 446 kts | 86° |
| 2026-04-20 13:54 | 45.65063 | 10.64687 | 23245 ft | 447 kts | 77° |
| 2026-04-20 13:54 | 45.65702 | 10.69051 | 23702 ft | 449 kts | 74° |
| 2026-04-20 13:54 | 45.66372 | 10.73422 | 24115 ft | 452 kts | 74° |
| 2026-04-20 13:54 | 45.67049 | 10.77832 | 24555 ft | 455 kts | 73° |
| 2026-04-20 13:55 | 45.67731 | 10.82290 | 24979 ft | 458 kts | 73° |
| 2026-04-20 13:55 | 45.68402 | 10.86720 | 25336 ft | 461 kts | 73° |
| 2026-04-20 13:55 | 45.69073 | 10.91215 | 25733 ft | 463 kts | 74° |
| 2026-04-20 13:55 | 45.69745 | 10.95740 | 26114 ft | 466 kts | 74° |
| 2026-04-20 13:56 | 45.70420 | 11.00291 | 26503 ft | 470 kts | 74° |
| 2026-04-20 13:56 | 45.71101 | 11.04896 | 26879 ft | 473 kts | 74° |
| 2026-04-20 13:56 | 45.71776 | 11.09483 | 27231 ft | 477 kts | 74° |
| 2026-04-20 13:56 | 45.72460 | 11.14148 | 27651 ft | 479 kts | 73° |
| 2026-04-20 13:57 | 45.73149 | 11.18848 | 28033 ft | 482 kts | 73° |
| 2026-04-20 13:57 | 45.73843 | 11.23563 | 28328 ft | 484 kts | 73° |
| 2026-04-20 13:57 | 45.74540 | 11.28300 | 28650 ft | 487 kts | 73° |
| 2026-04-20 13:57 | 45.75235 | 11.33018 | 29010 ft | 490 kts | 74° |
| 2026-04-20 13:58 | 45.75940 | 11.37809 | 29345 ft | 492 kts | 73° |
| 2026-04-20 13:58 | 45.76646 | 11.42632 | 29695 ft | 495 kts | 73° |
| 2026-04-20 13:58 | 45.77350 | 11.47481 | 30013 ft | 498 kts | 74° |
| 2026-04-20 13:58 | 45.78041 | 11.52299 | 30305 ft | 500 kts | 74° |
| 2026-04-20 13:59 | 45.78739 | 11.57210 | 30618 ft | 502 kts | 74° |
| 2026-04-20 13:59 | 45.79441 | 11.62144 | 30899 ft | 505 kts | 74° |
| 2026-04-20 13:59 | 45.80138 | 11.67029 | 31164 ft | 507 kts | 74° |
| 2026-04-20 13:59 | 45.80851 | 11.72020 | 31540 ft | 507 kts | 74° |
| 2026-04-20 14:00 | 45.81553 | 11.76974 | 32048 ft | 505 kts | 74° |
| 2026-04-20 14:00 | 45.82238 | 11.81840 | 32509 ft | 503 kts | 75° |
| 2026-04-20 14:00 | 45.82933 | 11.86774 | 32947 ft | 501 kts | 75° |
| 2026-04-20 14:00 | 45.83624 | 11.91677 | 33369 ft | 500 kts | 75° |
| 2026-04-20 14:01 | 45.84302 | 11.96502 | 33804 ft | 498 kts | 75° |
| 2026-04-20 14:01 | 45.84984 | 12.01389 | 34187 ft | 497 kts | 75° |
| 2026-04-20 14:01 | 45.85661 | 12.06244 | 34507 ft | 496 kts | 75° |
| 2026-04-20 14:01 | 45.86338 | 12.11113 | 34840 ft | 495 kts | 75° |
| 2026-04-20 14:02 | 45.87007 | 12.15968 | 35169 ft | 494 kts | 75° |
| 2026-04-20 14:02 | 45.87662 | 12.20756 | 35487 ft | 494 kts | 75° |
| 2026-04-20 14:02 | 45.88323 | 12.25593 | 35809 ft | 493 kts | 75° |
| 2026-04-20 14:02 | 45.88986 | 12.30436 | 36133 ft | 493 kts | 75° |
| 2026-04-20 14:03 | 45.89646 | 12.35269 | 36468 ft | 491 kts | 75° |
| 2026-04-20 14:03 | 45.90302 | 12.40084 | 36819 ft | 490 kts | 75° |
| 2026-04-20 14:03 | 45.90945 | 12.44834 | 36945 ft | 490 kts | 75° |
| 2026-04-20 14:03 | 45.91590 | 12.49640 | 36969 ft | 488 kts | 75° |
| 2026-04-20 14:04 | 45.92871 | 12.59225 | 36970 ft | 487 kts | 75° |
| 2026-04-20 14:04 | 45.94153 | 12.68807 | 36969 ft | 487 kts | 75° |
| 2026-04-20 14:05 | 45.95414 | 12.78335 | 36973 ft | 488 kts | 75° |
| 2026-04-20 14:05 | 45.96679 | 12.87931 | 36977 ft | 488 kts | 75° |
| 2026-04-20 14:06 | 45.97926 | 12.97491 | 36985 ft | 489 kts | 75° |
| 2026-04-20 14:06 | 45.99176 | 13.07096 | 36991 ft | 489 kts | 75° |
| 2026-04-20 14:07 | 46.00419 | 13.16737 | 36972 ft | 489 kts | 76° |
| 2026-04-20 14:07 | 46.01659 | 13.26376 | 36979 ft | 489 kts | 76° |
| 2026-04-20 14:08 | 46.02883 | 13.35975 | 36977 ft | 489 kts | 76° |
| 2026-04-20 14:08 | 46.04049 | 13.45223 | 36977 ft | 489 kts | 76° |
| 2026-04-20 14:09 | 46.05052 | 13.53246 | 36971 ft | 491 kts | 76° |
| 2026-04-20 14:09 | 46.06551 | 13.64626 | 36963 ft | 501 kts | 73° |
| 2026-04-20 14:10 | 46.07990 | 13.72710 | 36971 ft | 502 kts | 70° |
| 2026-04-20 14:10 | 46.09912 | 13.82329 | 36974 ft | 501 kts | 70° |
| 2026-04-20 14:11 | 46.11772 | 13.92033 | 36988 ft | 502 kts | 71° |
| 2026-04-20 14:11 | 46.13530 | 14.01816 | 36977 ft | 503 kts | 71° |
| 2026-04-20 14:12 | 46.15237 | 14.11547 | 36980 ft | 503 kts | 71° |
| 2026-04-20 14:12 | 46.16967 | 14.21370 | 36990 ft | 504 kts | 71° |
| 2026-04-20 14:13 | 46.18710 | 14.31138 | 36993 ft | 505 kts | 71° |
| 2026-04-20 14:13 | 46.20461 | 14.40998 | 36996 ft | 505 kts | 71° |
| 2026-04-20 14:14 | 46.22186 | 14.50775 | 37007 ft | 506 kts | 71° |
| 2026-04-20 14:14 | 46.23912 | 14.60644 | 37002 ft | 506 kts | 71° |
| 2026-04-20 14:15 | 46.25623 | 14.70528 | 36985 ft | 506 kts | 71° |
| 2026-04-20 14:15 | 46.27321 | 14.80363 | 36992 ft | 507 kts | 71° |
| 2026-04-20 14:16 | 46.29035 | 14.90293 | 37017 ft | 507 kts | 71° |
| 2026-04-20 14:16 | 46.30721 | 15.00213 | 37028 ft | 508 kts | 72° |
| 2026-04-20 14:17 | 46.32399 | 15.10114 | 37025 ft | 509 kts | 72° |
| 2026-04-20 14:17 | 46.34079 | 15.20091 | 37036 ft | 510 kts | 72° |
| 2026-04-20 14:18 | 46.35747 | 15.30031 | 37085 ft | 511 kts | 72° |
| 2026-04-20 14:18 | 46.37422 | 15.40045 | 37031 ft | 511 kts | 72° |
| 2026-04-20 14:19 | 46.39087 | 15.50082 | 37040 ft | 512 kts | 72° |
| 2026-04-20 14:19 | 46.40733 | 15.60072 | 37044 ft | 513 kts | 72° |
| 2026-04-20 14:20 | 46.42625 | 15.70026 | 37048 ft | 507 kts | 63° |
| 2026-04-20 14:20 | 46.45763 | 15.79098 | 37049 ft | 502 kts | 56° |
| 2026-04-20 14:21 | 46.49021 | 15.88075 | 37080 ft | 503 kts | 56° |
| 2026-04-20 14:21 | 46.52260 | 15.97067 | 37053 ft | 501 kts | 56° |
| 2026-04-20 14:22 | 46.55467 | 16.06017 | 37068 ft | 502 kts | 56° |
| 2026-04-20 14:22 | 46.58692 | 16.15030 | 37059 ft | 503 kts | 57° |
| 2026-04-20 14:23 | 46.61914 | 16.24070 | 37066 ft | 503 kts | 57° |
| 2026-04-20 14:23 | 46.65111 | 16.33091 | 37047 ft | 503 kts | 56° |
| 2026-04-20 14:24 | 46.68106 | 16.42329 | 37036 ft | 510 kts | 66° |
| 2026-04-20 14:24 | 46.69680 | 16.52488 | 37044 ft | 516 kts | 75° |
| 2026-04-20 14:25 | 46.70927 | 16.62304 | 37055 ft | 517 kts | 75° |
| 2026-04-20 14:25 | 46.72224 | 16.72620 | 37056 ft | 517 kts | 75° |
| 2026-04-20 14:26 | 46.73526 | 16.82946 | 37050 ft | 517 kts | 75° |
| 2026-04-20 14:26 | 46.74820 | 16.93265 | 37077 ft | 516 kts | 75° |
| 2026-04-20 14:27 | 46.76087 | 17.03527 | 37067 ft | 516 kts | 75° |
| 2026-04-20 14:27 | 46.77338 | 17.13776 | 37060 ft | 515 kts | 75° |
| 2026-04-20 14:28 | 46.78596 | 17.24100 | 37056 ft | 515 kts | 76° |
| 2026-04-20 14:28 | 46.79831 | 17.34332 | 37050 ft | 515 kts | 76° |
| 2026-04-20 14:29 | 46.81065 | 17.44650 | 37047 ft | 515 kts | 76° |
| 2026-04-20 14:29 | 46.82286 | 17.54913 | 37043 ft | 515 kts | 76° |
| 2026-04-20 14:30 | 46.83510 | 17.65244 | 37032 ft | 515 kts | 76° |
| 2026-04-20 14:30 | 46.84714 | 17.75507 | 37000 ft | 514 kts | 77° |
| 2026-04-20 14:31 | 46.85906 | 17.85809 | 37009 ft | 514 kts | 77° |
| 2026-04-20 14:31 | 46.87096 | 17.96130 | 37015 ft | 514 kts | 77° |
| 2026-04-20 14:32 | 46.88270 | 18.06386 | 37017 ft | 515 kts | 77° |
| 2026-04-20 14:32 | 46.89446 | 18.16733 | 37017 ft | 515 kts | 77° |
| 2026-04-20 14:33 | 46.90593 | 18.27034 | 37022 ft | 515 kts | 77° |
| 2026-04-20 14:33 | 46.91740 | 18.37395 | 37025 ft | 515 kts | 77° |
| 2026-04-20 14:34 | 46.92876 | 18.47695 | 37043 ft | 514 kts | 77° |
| 2026-04-20 14:34 | 46.94008 | 18.58014 | 37005 ft | 512 kts | 78° |
| 2026-04-20 14:35 | 46.95127 | 18.68329 | 37009 ft | 513 kts | 78° |
| 2026-04-20 14:35 | 46.96241 | 18.78647 | 37010 ft | 513 kts | 78° |
| 2026-04-20 14:36 | 46.97336 | 18.88924 | 37006 ft | 513 kts | 78° |
| 2026-04-20 14:36 | 46.98422 | 18.99285 | 37003 ft | 513 kts | 78° |
| 2026-04-20 14:37 | 46.99497 | 19.09600 | 37001 ft | 513 kts | 78° |
| 2026-04-20 14:37 | 47.00577 | 19.19967 | 37003 ft | 513 kts | 78° |
| 2026-04-20 14:38 | 47.01639 | 19.30250 | 37015 ft | 513 kts | 79° |
| 2026-04-20 14:38 | 47.02684 | 19.40594 | 37000 ft | 511 kts | 79° |
| 2026-04-20 14:39 | 47.03714 | 19.50919 | 36997 ft | 510 kts | 79° |
| 2026-04-20 14:39 | 47.04755 | 19.61167 | 36988 ft | 510 kts | 79° |
| 2026-04-20 14:40 | 47.05778 | 19.71460 | 36998 ft | 510 kts | 79° |
| 2026-04-20 14:40 | 47.06787 | 19.81764 | 36996 ft | 510 kts | 79° |
| 2026-04-20 14:41 | 47.07782 | 19.92001 | 36993 ft | 510 kts | 80° |
| 2026-04-20 14:41 | 47.08757 | 20.02326 | 36983 ft | 510 kts | 83° |
| 2026-04-20 14:42 | 47.08794 | 20.12703 | 36974 ft | 511 kts | 89° |
| 2026-04-20 14:42 | 47.08690 | 20.23145 | 36965 ft | 512 kts | 90° |
| 2026-04-20 14:43 | 47.08565 | 20.33613 | 36955 ft | 512 kts | 90° |
| 2026-04-20 14:43 | 47.08436 | 20.44033 | 36955 ft | 512 kts | 90° |
| 2026-04-20 14:44 | 47.08294 | 20.54478 | 36949 ft | 512 kts | 90° |
| 2026-04-20 14:44 | 47.08141 | 20.64895 | 36949 ft | 512 kts | 90° |
| 2026-04-20 14:45 | 47.07972 | 20.75341 | 36947 ft | 512 kts | 90° |
| 2026-04-20 14:45 | 47.07801 | 20.85803 | 36947 ft | 512 kts | 90° |
| 2026-04-20 14:46 | 47.07623 | 20.96284 | 36669 ft | 511 kts | 90° |
| 2026-04-20 14:46 | 47.07529 | 21.01431 | 36289 ft | 510 kts | 90° |
| 2026-04-20 14:46 | 47.07428 | 21.06649 | 35917 ft | 510 kts | 90° |
| 2026-04-20 14:47 | 47.07326 | 21.11848 | 35550 ft | 505 kts | 90° |
| 2026-04-20 14:47 | 47.07222 | 21.16979 | 35182 ft | 499 kts | 90° |
| 2026-04-20 14:47 | 47.07120 | 21.21992 | 34819 ft | 495 kts | 90° |
| 2026-04-20 14:48 | 47.06921 | 21.32022 | 34140 ft | 487 kts | 90° |
| 2026-04-20 14:48 | 47.06817 | 21.36983 | 33773 ft | 484 kts | 91° |
| 2026-04-20 14:48 | 47.06704 | 21.41903 | 33356 ft | 481 kts | 91° |
| 2026-04-20 14:48 | 47.06584 | 21.46783 | 32972 ft | 476 kts | 91° |
| 2026-04-20 14:49 | 47.06465 | 21.51623 | 32881 ft | 472 kts | 91° |
| 2026-04-20 14:49 | 47.06232 | 21.61246 | 32914 ft | 474 kts | 91° |
| 2026-04-20 14:50 | 47.06006 | 21.70940 | 32920 ft | 474 kts | 91° |
| 2026-04-20 14:50 | 47.05776 | 21.80610 | 32605 ft | 473 kts | 91° |
| 2026-04-20 14:50 | 47.05656 | 21.85416 | 32340 ft | 471 kts | 91° |
| 2026-04-20 14:51 | 47.05535 | 21.90201 | 32069 ft | 468 kts | 91° |
| 2026-04-20 14:51 | 47.05412 | 21.94904 | 31811 ft | 465 kts | 91° |
| 2026-04-20 14:51 | 47.05284 | 21.99632 | 31554 ft | 463 kts | 92° |
| 2026-04-20 14:51 | 47.05152 | 22.04348 | 31300 ft | 461 kts | 92° |
| 2026-04-20 14:52 | 47.05021 | 22.09043 | 31043 ft | 460 kts | 92° |
| 2026-04-20 14:52 | 47.04891 | 22.13729 | 30790 ft | 458 kts | 92° |
| 2026-04-20 14:52 | 47.04763 | 22.18389 | 30533 ft | 456 kts | 92° |
| 2026-04-20 14:52 | 47.04633 | 22.23028 | 30284 ft | 453 kts | 92° |
| 2026-04-20 14:53 | 47.04500 | 22.27585 | 29771 ft | 451 kts | 92° |
| 2026-04-20 14:53 | 47.04366 | 22.32170 | 29248 ft | 448 kts | 92° |
| 2026-04-20 14:53 | 47.04231 | 22.36705 | 28753 ft | 444 kts | 92° |
| 2026-04-20 14:53 | 47.04094 | 22.41208 | 28266 ft | 440 kts | 92° |
| 2026-04-20 14:54 | 47.03955 | 22.45680 | 27781 ft | 437 kts | 92° |
| 2026-04-20 14:54 | 47.03816 | 22.50116 | 27323 ft | 433 kts | 92° |
| 2026-04-20 14:54 | 47.03676 | 22.54525 | 26864 ft | 431 kts | 92° |
| 2026-04-20 14:54 | 47.03536 | 22.58894 | 26448 ft | 428 kts | 93° |
| 2026-04-20 14:55 | 47.03395 | 22.63254 | 25962 ft | 426 kts | 93° |
| 2026-04-20 14:55 | 47.03255 | 22.67583 | 25524 ft | 424 kts | 93° |
| 2026-04-20 14:55 | 47.02884 | 22.71855 | 25083 ft | 421 kts | 104° |
| 2026-04-20 14:55 | 47.02028 | 22.75933 | 24664 ft | 416 kts | 113° |
| 2026-04-20 14:56 | 47.01012 | 22.79841 | 24251 ft | 414 kts | 113° |
| 2026-04-20 14:56 | 47.00321 | 22.82497 | 23969 ft | 413 kts | 113° |
| 2026-04-20 14:56 | 46.99321 | 22.86395 | 23533 ft | 411 kts | 111° |
| 2026-04-20 14:56 | 46.98408 | 22.90377 | 23055 ft | 409 kts | 109° |
| 2026-04-20 14:57 | 46.97589 | 22.94348 | 22620 ft | 405 kts | 108° |
| 2026-04-20 14:57 | 46.96816 | 22.98312 | 22179 ft | 401 kts | 107° |
| 2026-04-20 14:57 | 46.96061 | 23.02231 | 21737 ft | 397 kts | 107° |
| 2026-04-20 14:57 | 46.95303 | 23.06098 | 21296 ft | 394 kts | 107° |
| 2026-04-20 14:58 | 46.94529 | 23.09934 | 20854 ft | 390 kts | 108° |
| 2026-04-20 14:58 | 46.93746 | 23.13718 | 20414 ft | 387 kts | 108° |
| 2026-04-20 14:58 | 46.92969 | 23.17428 | 19983 ft | 384 kts | 108° |
| 2026-04-20 14:58 | 46.92185 | 23.21156 | 19541 ft | 382 kts | 108° |
| 2026-04-20 14:59 | 46.91406 | 23.24866 | 19102 ft | 379 kts | 108° |
| 2026-04-20 14:59 | 46.90636 | 23.28544 | 18671 ft | 377 kts | 108° |
| 2026-04-20 14:59 | 46.89869 | 23.32208 | 18241 ft | 374 kts | 108° |
| 2026-04-20 14:59 | 46.89106 | 23.35832 | 17766 ft | 372 kts | 108° |
| 2026-04-20 15:00 | 46.88353 | 23.39403 | 17334 ft | 368 kts | 108° |
| 2026-04-20 15:00 | 46.87600 | 23.42960 | 16919 ft | 364 kts | 108° |
| 2026-04-20 15:00 | 46.86853 | 23.46494 | 16489 ft | 361 kts | 108° |
| 2026-04-20 15:00 | 46.86127 | 23.49946 | 16078 ft | 358 kts | 108° |
| 2026-04-20 15:01 | 46.85397 | 23.53407 | 15659 ft | 355 kts | 108° |
| 2026-04-20 15:01 | 46.84666 | 23.56861 | 15238 ft | 353 kts | 108° |
| 2026-04-20 15:01 | 46.83939 | 23.60280 | 14820 ft | 351 kts | 108° |
| 2026-04-20 15:01 | 46.83218 | 23.63669 | 14406 ft | 348 kts | 108° |
| 2026-04-20 15:02 | 46.82499 | 23.67039 | 13996 ft | 346 kts | 108° |
| 2026-04-20 15:02 | 46.81782 | 23.70392 | 13576 ft | 344 kts | 108° |
| 2026-04-20 15:02 | 46.81080 | 23.73678 | 13154 ft | 341 kts | 108° |
| 2026-04-20 15:02 | 46.80139 | 23.76818 | 12754 ft | 336 kts | 122° |
| 2026-04-20 15:03 | 46.78752 | 23.79535 | 12355 ft | 331 kts | 136° |
| 2026-04-20 15:03 | 46.77016 | 23.81693 | 11969 ft | 324 kts | 149° |
| 2026-04-20 15:03 | 46.75148 | 23.83512 | 11584 ft | 321 kts | 149° |
| 2026-04-20 15:03 | 46.73296 | 23.85327 | 11204 ft | 318 kts | 149° |
| 2026-04-20 15:04 | 46.71485 | 23.87106 | 10825 ft | 316 kts | 148° |
| 2026-04-20 15:04 | 46.69669 | 23.88887 | 10454 ft | 314 kts | 148° |
| 2026-04-20 15:04 | 46.67863 | 23.90659 | 10079 ft | 312 kts | 148° |
| 2026-04-20 15:04 | 46.66088 | 23.92404 | 9875 ft | 303 kts | 148° |
| 2026-04-20 15:05 | 46.64348 | 23.94112 | 9586 ft | 299 kts | 148° |
| 2026-04-20 15:05 | 46.62614 | 23.95813 | 9089 ft | 300 kts | 148° |
| 2026-04-20 15:05 | 46.60883 | 23.97507 | 8632 ft | 302 kts | 148° |
| 2026-04-20 15:05 | 46.59146 | 23.99204 | 8319 ft | 297 kts | 148° |
| 2026-04-20 15:06 | 46.57434 | 24.00875 | 7948 ft | 296 kts | 148° |
| 2026-04-20 15:06 | 46.55777 | 24.02493 | 7812 ft | 286 kts | 148° |
| 2026-04-20 15:06 | 46.54155 | 24.04079 | 7675 ft | 275 kts | 148° |
| 2026-04-20 15:06 | 46.52522 | 24.05419 | 7528 ft | 263 kts | 162° |
| 2026-04-20 15:07 | 46.50795 | 24.06180 | 7257 ft | 258 kts | 168° |
| 2026-04-20 15:07 | 46.49061 | 24.06895 | 6927 ft | 258 kts | 167° |
| 2026-04-20 15:07 | 46.47343 | 24.07610 | 6628 ft | 255 kts | 167° |
| 2026-04-20 15:07 | 46.45672 | 24.08313 | 6088 ft | 252 kts | 165° |
| 2026-04-20 15:08 | 46.44129 | 24.09464 | 5606 ft | 246 kts | 146° |
| 2026-04-20 15:08 | 46.42928 | 24.11222 | 4997 ft | 247 kts | 127° |
| 2026-04-20 15:08 | 46.42195 | 24.13402 | 4650 ft | 235 kts | 107° |
| 2026-04-20 15:08 | 46.41958 | 24.15698 | 4416 ft | 226 kts | 90° |
| 2026-04-20 15:09 | 46.42173 | 24.17886 | 4126 ft | 214 kts | 72° |
| 2026-04-20 15:09 | 46.42574 | 24.19913 | 3836 ft | 205 kts | 72° |
| 2026-04-20 15:09 | 46.42954 | 24.21833 | 3566 ft | 191 kts | 72° |
| 2026-04-20 15:09 | 46.43308 | 24.23630 | 3313 ft | 180 kts | 72° |
| 2026-04-20 15:10 | 46.43646 | 24.25342 | 3081 ft | 174 kts | 72° |
| 2026-04-20 15:10 | 46.43974 | 24.27001 | 2861 ft | 172 kts | 72° |
| 2026-04-20 15:10 | 46.44293 | 24.28623 | 2655 ft | 159 kts | 71° |
| 2026-04-20 15:10 | 46.44586 | 24.30116 | 2433 ft | 154 kts | 71° |
| 2026-04-20 15:11 | 46.44878 | 24.31595 | 2202 ft | 153 kts | 71° |
| 2026-04-20 15:11 | 46.45166 | 24.33060 | 2006 ft | 149 kts | 73° |
| 2026-04-20 15:11 | 46.45449 | 24.34500 | 1797 ft | 148 kts | 73° |
| 2026-04-20 15:11 | 46.45729 | 24.35930 | 1589 ft | 147 kts | 74° |
| 2026-04-20 15:12 | 46.46013 | 24.37347 | 1383 ft | 146 kts | 74° |
| 2026-04-20 15:12 | 46.46312 | 24.38736 | 1211 ft | 143 kts | 81° |
| 2026-04-20 15:12 | 46.46586 | 24.40144 | 1021 ft | 144 kts | 90° |
| 2026-04-20 15:12 | 46.46806 | 24.41437 | 961 ft | 114 kts | 72° |
| 2026-04-20 15:13 | 46.46913 | 24.41962 | 960 ft | 22 kts | 76° |
| 2026-04-20 15:13 | 46.46927 | 24.42035 | 961 ft | 1 kts | 74° |
| 2026-04-20 15:13 | 46.46934 | 24.42074 | 962 ft | 10 kts | 74° |
| 2026-04-20 15:13 | 46.46957 | 24.42192 | 959 ft | 6 kts | 81° |
| 2026-04-20 15:14 | 46.46938 | 24.42233 | 960 ft | 5 kts | 142° |
| 2026-04-20 15:14 | 46.46903 | 24.42254 | 961 ft | 6 kts | 163° |
| 2026-04-20 15:14 | 46.46901 | 24.42255 | 961 ft | 0 kts | 163° |
| 2026-04-20 15:17 | 46.46883 | 24.42262 | 960 ft | 7 kts | 165° |
| 2026-04-20 15:17 | 46.46828 | 24.42291 | 961 ft | 8 kts | 156° |
| 2026-04-20 15:17 | 46.46780 | 24.42286 | 963 ft | 7 kts | 213° |
| 2026-04-20 15:18 | 46.46776 | 24.42232 | 963 ft | 6 kts | 313° |
| 2026-04-20 15:18 | 46.46787 | 24.42230 | 960 ft | 0 kts | 5° |